Time;durP1;ratioP1;P1;durP2;ratioP2;P2;SDS_P1;SDS_P2;PMS_P1;PMS_P2;Temp;Humidity;BMP_temperature;BMP_pressure;BME280_temperature;BME280_humidity;BME280_pressure;Samples;Min_cycle;Max_cycle;Signal;HPM_P1;HPM_P2
2023/10/29 00:02:17;;;;;;;4.67;3.20;;;11.80;99.90;;;;;;5036474;28;20622;-59
2023/10/29 00:04:44;;;;;;;5.33;3.43;;;11.80;99.90;;;;;;5036524;28;20451;-58
2023/10/29 00:07:11;;;;;;;5.57;3.40;;;11.80;99.90;;;;;;5036347;28;21016;-60
2023/10/29 00:09:40;;;;;;;4.37;3.57;;;11.80;99.90;;;;;;5036074;28;20438;-58
2023/10/29 00:12:08;;;;;;;7.20;3.43;;;11.80;99.90;;;;;;5036164;28;20459;-58
2023/10/29 00:14:37;;;;;;;5.00;3.63;;;11.80;99.90;;;;;;5036341;28;20954;-58
2023/10/29 00:17:04;;;;;;;5.80;3.20;;;11.80;99.90;;;;;;5035375;28;20460;-58
2023/10/29 00:19:32;;;;;;;4.80;3.00;;;11.90;99.90;;;;;;5036342;28;20462;-57
2023/10/29 00:21:59;;;;;;;6.40;3.30;;;11.90;99.90;;;;;;5036017;28;20903;-58
2023/10/29 00:24:26;;;;;;;4.73;3.10;;;11.90;99.90;;;;;;5036108;28;20455;-60
2023/10/29 00:26:55;;;;;;;4.83;3.33;;;11.90;99.90;;;;;;5036476;28;20554;-59
2023/10/29 00:29:22;;;;;;;6.33;3.07;;;11.90;99.90;;;;;;5036338;28;20495;-59
2023/10/29 00:31:49;;;;;;;4.60;2.70;;;11.90;99.90;;;;;;5036099;28;20459;-59
2023/10/29 00:34:16;;;;;;;8.23;3.43;;;11.90;99.90;;;;;;5035411;28;20931;-59
2023/10/29 00:36:43;;;;;;;5.40;3.07;;;11.90;99.90;;;;;;5036148;28;20560;-59
2023/10/29 00:39:11;;;;;;;5.70;2.80;;;11.90;99.90;;;;;;5036216;28;20459;-61
2023/10/29 00:41:38;;;;;;;4.67;3.43;;;11.90;99.90;;;;;;5035830;28;20546;-60
2023/10/29 00:44:06;;;;;;;5.03;3.03;;;11.90;99.90;;;;;;5035745;28;20504;-60
2023/10/29 00:46:34;;;;;;;4.37;2.70;;;11.90;99.90;;;;;;5035860;28;20463;-59
2023/10/29 00:49:02;;;;;;;3.83;2.67;;;11.90;99.90;;;;;;5035891;28;20463;-58
2023/10/29 00:51:30;;;;;;;4.90;2.70;;;12.00;99.90;;;;;;5036327;28;20464;-59
2023/10/29 00:53:57;;;;;;;4.20;2.80;;;12.00;99.90;;;;;;5035461;28;20804;-59
2023/10/29 00:56:25;;;;;;;4.47;2.67;;;11.90;99.90;;;;;;5035752;28;20508;-59
2023/10/29 00:58:53;;;;;;;4.90;3.00;;;12.00;99.90;;;;;;5035758;28;20463;-58
2023/10/29 01:01:22;;;;;;;3.30;2.70;;;12.00;99.90;;;;;;5035862;28;20465;-60
2023/10/29 01:03:49;;;;;;;5.00;3.00;;;12.00;99.90;;;;;;5035249;28;20463;-59
2023/10/29 01:06:17;;;;;;;4.37;3.37;;;12.00;99.90;;;;;;5035535;28;20765;-59
2023/10/29 01:08:44;;;;;;;7.23;2.60;;;12.00;99.90;;;;;;5035401;28;20479;-59
2023/10/29 01:11:12;;;;;;;6.70;3.20;;;12.00;99.90;;;;;;5035644;28;20898;-58
2023/10/29 01:13:39;;;;;;;5.47;3.23;;;12.00;99.90;;;;;;5035290;28;20935;-58
2023/10/29 01:16:07;;;;;;;4.57;3.07;;;12.00;99.90;;;;;;5035182;28;20459;-59
2023/10/29 01:18:36;;;;;;;5.30;2.80;;;12.00;99.90;;;;;;5035401;28;20464;-59
2023/10/29 01:21:03;;;;;;;5.07;3.33;;;12.00;99.90;;;;;;5035795;28;20438;-62
2023/10/29 01:23:31;;;;;;;5.03;2.80;;;12.00;99.90;;;;;;5035403;28;20523;-58
2023/10/29 01:25:59;;;;;;;5.57;3.00;;;12.00;99.90;;;;;;5035108;28;20477;-58
2023/10/29 01:28:26;;;;;;;4.00;3.03;;;12.00;99.90;;;;;;5034963;28;20490;-59
2023/10/29 01:30:53;;;;;;;5.03;2.77;;;12.00;99.90;;;;;;5035381;28;20551;-57
2023/10/29 01:33:20;;;;;;;4.00;2.87;;;12.00;99.90;;;;;;5034761;28;20495;-59
2023/10/29 01:35:49;;;;;;;3.90;2.60;;;12.00;99.90;;;;;;5034714;28;20459;-59
2023/10/29 01:38:17;;;;;;;5.00;3.27;;;12.00;99.90;;;;;;5035165;28;20463;-58
2023/10/29 01:40:44;;;;;;;3.60;2.90;;;12.00;99.90;;;;;;5035253;28;20459;-58
2023/10/29 01:43:11;;;;;;;3.50;2.77;;;12.00;99.90;;;;;;5035106;28;20458;-60
2023/10/29 01:45:38;;;;;;;4.40;2.83;;;12.10;99.90;;;;;;5035409;28;20455;-59
2023/10/29 01:48:05;;;;;;;4.30;3.40;;;12.10;99.90;;;;;;5034949;28;20472;-58
2023/10/29 01:50:33;;;;;;;4.70;2.77;;;12.10;99.90;;;;;;5034912;28;20459;-59
2023/10/29 01:53:01;;;;;;;4.60;3.40;;;12.10;99.90;;;;;;5035050;28;20491;-58
2023/10/29 01:55:28;;;;;;;5.37;3.10;;;12.10;99.90;;;;;;5034468;28;20559;-58
2023/10/29 01:57:56;;;;;;;7.20;2.87;;;12.10;99.90;;;;;;5034532;28;20459;-60
2023/10/29 02:00:23;;;;;;;4.50;2.40;;;12.10;99.90;;;;;;5034866;28;20498;-59
2023/10/29 02:02:51;;;;;;;4.50;2.67;;;12.10;99.90;;;;;;5034683;28;20952;-59
2023/10/29 02:05:19;;;;;;;15.00;3.00;;;12.10;99.90;;;;;;5034801;28;20464;-59
2023/10/29 02:07:46;;;;;;;4.77;2.50;;;12.10;99.90;;;;;;5034864;28;20486;-58
2023/10/29 02:10:14;;;;;;;4.33;2.30;;;12.10;99.90;;;;;;5034591;28;20493;-58
2023/10/29 02:12:41;;;;;;;5.33;2.77;;;12.10;99.90;;;;;;5034702;28;20542;-58
2023/10/29 02:15:09;;;;;;;3.90;2.70;;;12.10;99.90;;;;;;5034611;28;20916;-58
2023/10/29 02:17:36;;;;;;;3.70;2.50;;;12.20;99.90;;;;;;5034139;28;20495;-60
2023/10/29 02:20:05;;;;;;;5.20;3.10;;;12.20;99.90;;;;;;5034696;28;20564;-60
2023/10/29 02:22:33;;;;;;;5.30;2.90;;;12.20;99.90;;;;;;5034601;28;20464;-58
2023/10/29 02:25:01;;;;;;;3.80;2.50;;;12.20;99.90;;;;;;5034796;28;20455;-58
2023/10/29 02:27:28;;;;;;;5.43;2.50;;;12.20;99.90;;;;;;5034610;28;20455;-60
2023/10/29 02:29:55;;;;;;;4.83;2.57;;;12.20;99.90;;;;;;5034065;28;20459;-58
2023/10/29 02:32:22;;;;;;;6.60;2.80;;;12.20;99.90;;;;;;5033670;28;20467;-59
2023/10/29 02:34:49;;;;;;;6.00;2.47;;;12.20;99.90;;;;;;5033755;28;20495;-58
2023/10/29 02:37:16;;;;;;;3.23;2.70;;;12.20;99.90;;;;;;5034607;28;20481;-60
2023/10/29 02:39:45;;;;;;;4.67;2.70;;;12.20;99.90;;;;;;5033266;28;20460;-60
2023/10/29 02:42:16;;;;;;;4.47;2.80;;;12.20;99.90;;;;;;5033646;28;20465;-61
2023/10/29 02:44:44;;;;;;;5.17;2.70;;;12.20;99.90;;;;;;5034159;28;20551;-60
2023/10/29 02:47:11;;;;;;;4.40;2.43;;;12.20;99.90;;;;;;5034163;28;20455;-58
2023/10/29 02:49:38;;;;;;;6.20;2.90;;;12.20;99.90;;;;;;5033878;28;20516;-59
2023/10/29 02:52:06;;;;;;;4.20;2.40;;;12.20;99.90;;;;;;5033808;28;20507;-57
2023/10/29 02:54:34;;;;;;;3.60;2.17;;;12.20;99.90;;;;;;5033927;28;20491;-60
2023/10/29 02:57:03;;;;;;;4.33;2.50;;;12.30;99.90;;;;;;5034181;28;20887;-59
2023/10/29 02:59:30;;;;;;;4.23;2.60;;;12.30;99.90;;;;;;5034457;28;20459;-59
2023/10/29 03:01:57;;;;;;;4.23;3.07;;;12.30;99.90;;;;;;5034125;28;20470;-59
2023/10/29 03:04:24;;;;;;;2.70;2.17;;;12.30;99.90;;;;;;5033838;28;20460;-60
2023/10/29 03:06:51;;;;;;;4.83;2.80;;;12.30;99.90;;;;;;5033934;28;20481;-63
2023/10/29 03:09:18;;;;;;;4.27;2.53;;;12.30;99.90;;;;;;5033982;28;20551;-59
2023/10/29 03:11:46;;;;;;;4.20;2.60;;;12.30;99.90;;;;;;5033945;28;20466;-58
2023/10/29 03:14:14;;;;;;;4.43;2.67;;;12.30;99.90;;;;;;5033780;28;20577;-58
2023/10/29 03:16:41;;;;;;;9.70;3.30;;;12.30;99.90;;;;;;5033873;28;20554;-58
2023/10/29 03:19:08;;;;;;;5.30;2.70;;;12.30;99.90;;;;;;5033885;28;20463;-58
2023/10/29 03:21:36;;;;;;;6.70;2.60;;;12.30;99.90;;;;;;5033886;28;20454;-58
2023/10/29 03:24:03;;;;;;;4.60;2.60;;;12.30;99.90;;;;;;5033462;28;20542;-59
2023/10/29 03:26:30;;;;;;;3.80;2.27;;;12.30;99.90;;;;;;5033284;28;20469;-58
2023/10/29 03:28:57;;;;;;;4.33;2.40;;;12.30;99.90;;;;;;5033813;28;20460;-61
2023/10/29 03:31:26;;;;;;;4.20;2.00;;;12.30;99.90;;;;;;5033750;28;20459;-60
2023/10/29 03:33:53;;;;;;;4.10;2.00;;;12.30;99.90;;;;;;5032597;28;20736;-58
2023/10/29 03:36:20;;;;;;;6.00;2.20;;;12.30;99.90;;;;;;5033552;28;20461;-59
2023/10/29 03:38:48;;;;;;;10.50;2.50;;;12.30;99.90;;;;;;5033882;28;20500;-58
2023/10/29 03:41:22;;;;;;;4.00;2.40;;;12.40;99.90;;;;;;5033662;28;20759;-58
2023/10/29 03:43:49;;;;;;;3.80;2.43;;;12.40;99.90;;;;;;5033198;28;20464;-58
2023/10/29 03:46:16;;;;;;;3.17;2.10;;;12.40;99.90;;;;;;5033662;28;20459;-58
2023/10/29 03:48:45;;;;;;;6.50;2.03;;;12.40;99.90;;;;;;5033439;28;20562;-59
2023/10/29 03:51:13;;;;;;;3.60;2.30;;;12.40;99.90;;;;;;5033663;28;20470;-59
2023/10/29 03:53:40;;;;;;;4.40;2.13;;;12.40;99.90;;;;;;5036616;28;20437;-58
2023/10/29 03:56:08;;;;;;;5.53;2.00;;;12.50;99.90;;;;;;5036574;28;20798;-57
2023/10/29 03:58:35;;;;;;;4.60;2.70;;;12.50;99.90;;;;;;5036956;28;20459;-59
2023/10/29 04:01:02;;;;;;;4.73;2.87;;;12.50;99.90;;;;;;5036831;28;20565;-58
2023/10/29 04:03:29;;;;;;;2.97;2.33;;;12.50;99.90;;;;;;5036653;28;20455;-59
2023/10/29 04:05:58;;;;;;;5.07;1.80;;;12.50;99.90;;;;;;5036416;28;20914;-62
2023/10/29 04:08:25;;;;;;;5.23;1.93;;;12.60;99.90;;;;;;5036009;28;20469;-60
2023/10/29 04:10:52;;;;;;;4.40;2.20;;;12.60;99.90;;;;;;5036603;28;20884;-58
2023/10/29 04:13:19;;;;;;;5.07;2.30;;;12.60;99.90;;;;;;5036630;28;20472;-58
2023/10/29 04:15:46;;;;;;;4.00;1.90;;;12.60;99.90;;;;;;5036012;28;20465;-58
2023/10/29 04:18:14;;;;;;;3.87;2.27;;;12.60;99.90;;;;;;5036395;28;20463;-60
2023/10/29 04:20:41;;;;;;;5.73;2.60;;;12.70;99.90;;;;;;5036477;28;20459;-59
2023/10/29 04:23:09;;;;;;;3.33;2.23;;;12.70;99.90;;;;;;5036688;28;20463;-58
2023/10/29 04:25:36;;;;;;;3.37;2.03;;;12.70;99.90;;;;;;5035820;28;20456;-58
2023/10/29 04:28:04;;;;;;;5.40;1.97;;;12.60;99.90;;;;;;5036237;28;20912;-58
2023/10/29 04:30:31;;;;;;;2.70;1.93;;;12.70;99.90;;;;;;5036075;28;20466;-58
2023/10/29 04:32:58;;;;;;;3.10;2.10;;;12.60;99.90;;;;;;5035588;28;20494;-60
2023/10/29 04:35:25;;;;;;;3.60;2.20;;;12.60;99.90;;;;;;5035416;28;20477;-57
2023/10/29 04:37:52;;;;;;;6.27;2.00;;;12.70;99.90;;;;;;5036540;28;20455;-59
2023/10/29 04:40:21;;;;;;;2.87;1.80;;;12.70;99.90;;;;;;5036118;28;20464;-58
2023/10/29 04:42:48;;;;;;;2.60;2.00;;;12.70;99.90;;;;;;5036050;28;20471;-58
2023/10/29 04:45:15;;;;;;;5.03;1.97;;;12.70;99.90;;;;;;5036122;28;20873;-59
2023/10/29 04:47:43;;;;;;;5.27;2.10;;;12.70;99.90;;;;;;5035828;28;20463;-58
2023/10/29 04:50:11;;;;;;;5.30;2.33;;;12.70;99.90;;;;;;5035697;28;20557;-57
2023/10/29 04:52:39;;;;;;;5.53;2.17;;;12.80;99.90;;;;;;5035879;28;20558;-58
2023/10/29 04:55:08;;;;;;;3.90;2.20;;;12.80;99.90;;;;;;5036041;28;20498;-58
2023/10/29 04:57:37;;;;;;;3.00;2.20;;;12.80;99.90;;;;;;5035641;28;20519;-59
2023/10/29 05:00:05;;;;;;;4.37;2.53;;;12.80;99.90;;;;;;5035636;28;20726;-58
2023/10/29 05:02:33;;;;;;;3.17;2.20;;;12.70;99.90;;;;;;5035873;28;20462;-59
2023/10/29 05:05:00;;;;;;;4.00;1.90;;;12.70;99.90;;;;;;5035199;28;20835;-58
2023/10/29 05:07:27;;;;;;;3.37;1.80;;;12.70;99.90;;;;;;5035654;28;20480;-58
2023/10/29 05:09:54;;;;;;;3.20;1.60;;;12.70;99.90;;;;;;5035414;28;20927;-58
2023/10/29 05:12:21;;;;;;;2.60;1.73;;;12.70;99.90;;;;;;5035413;28;20558;-58
2023/10/29 05:14:51;;;;;;;3.63;2.00;;;12.80;99.90;;;;;;5035560;28;20800;-59
2023/10/29 05:17:18;;;;;;;3.90;1.97;;;12.80;99.90;;;;;;5035841;28;20513;-59
2023/10/29 05:19:47;;;;;;;4.27;2.00;;;12.80;99.90;;;;;;5035341;28;20483;-57
2023/10/29 05:22:14;;;;;;;5.33;2.23;;;12.80;99.90;;;;;;5035433;28;20491;-57
2023/10/29 05:24:41;;;;;;;3.17;2.00;;;12.80;99.90;;;;;;5035317;28;20459;-58
2023/10/29 05:27:09;;;;;;;4.10;1.97;;;12.80;99.90;;;;;;5035359;28;20445;-58
2023/10/29 05:29:36;;;;;;;7.77;2.13;;;12.90;99.90;;;;;;5034831;28;20444;-58
2023/10/29 05:32:06;;;;;;;4.77;2.10;;;12.80;99.90;;;;;;5034811;28;20465;-58
2023/10/29 05:34:33;;;;;;;2.73;1.73;;;12.90;99.90;;;;;;5034569;28;20465;-57
2023/10/29 05:37:00;;;;;;;4.03;2.33;;;12.90;99.90;;;;;;5035360;28;20758;-58
2023/10/29 05:39:27;;;;;;;5.53;1.90;;;12.90;99.90;;;;;;5035261;28;20426;-57
2023/10/29 05:41:54;;;;;;;3.67;2.17;;;13.00;99.90;;;;;;5034851;28;20459;-59
2023/10/29 05:44:22;;;;;;;3.30;1.73;;;13.00;99.90;;;;;;5035055;28;20726;-57
2023/10/29 05:46:49;;;;;;;5.40;2.00;;;13.00;99.90;;;;;;5035422;28;20460;-57
2023/10/29 05:49:17;;;;;;;4.70;1.97;;;13.00;99.90;;;;;;5035022;28;20467;-58
2023/10/29 05:51:44;;;;;;;5.80;2.50;;;13.00;99.90;;;;;;5034631;28;20590;-57
2023/10/29 05:54:12;;;;;;;3.53;2.60;;;13.00;99.90;;;;;;5034878;28;20906;-58
2023/10/29 05:56:39;;;;;;;3.93;1.93;;;13.00;99.90;;;;;;5034832;28;20911;-57
2023/10/29 05:59:06;;;;;;;11.90;2.30;;;13.00;99.90;;;;;;5035206;28;20459;-58
2023/10/29 06:01:33;;;;;;;4.03;2.10;;;13.00;99.90;;;;;;5034577;28;20542;-58
2023/10/29 06:04:00;;;;;;;4.40;2.57;;;13.00;99.90;;;;;;5034863;28;20876;-58
2023/10/29 06:06:29;;;;;;;3.57;2.13;;;13.00;99.90;;;;;;5034544;28;20430;-58
2023/10/29 06:08:56;;;;;;;4.13;2.23;;;13.00;99.90;;;;;;5034559;28;20487;-57
2023/10/29 06:11:24;;;;;;;2.73;1.90;;;13.00;99.90;;;;;;5034602;28;20561;-57
2023/10/29 06:13:53;;;;;;;4.10;1.90;;;13.00;99.90;;;;;;5034282;28;20465;-58
2023/10/29 06:16:20;;;;;;;3.27;1.53;;;13.00;99.90;;;;;;5033319;28;20499;-58
2023/10/29 06:18:47;;;;;;;4.27;2.00;;;13.00;99.90;;;;;;5035005;28;20477;-58
2023/10/29 06:21:14;;;;;;;4.03;2.40;;;13.00;99.90;;;;;;5034627;28;20463;-58
2023/10/29 06:23:43;;;;;;;3.73;2.00;;;13.00;99.90;;;;;;5034322;28;20927;-59
2023/10/29 06:26:10;;;;;;;6.47;2.20;;;13.10;99.90;;;;;;5034509;28;20455;-58
2023/10/29 06:28:37;;;;;;;2.87;1.90;;;13.10;99.90;;;;;;5033115;28;20791;-58
2023/10/29 06:31:05;;;;;;;3.17;1.80;;;13.10;99.90;;;;;;5033550;28;20455;-59
2023/10/29 06:33:32;;;;;;;4.37;1.90;;;13.10;99.90;;;;;;5032951;28;20463;-59
2023/10/29 06:36:00;;;;;;;4.20;2.43;;;13.10;99.90;;;;;;5034247;28;20672;-58
2023/10/29 06:38:27;;;;;;;3.17;1.90;;;13.10;99.90;;;;;;5034159;28;20469;-59
2023/10/29 06:40:55;;;;;;;4.40;2.20;;;13.10;99.90;;;;;;5034410;28;20549;-60
2023/10/29 06:43:22;;;;;;;3.60;1.80;;;13.10;99.90;;;;;;5034360;28;20751;-59
2023/10/29 06:45:50;;;;;;;3.83;2.40;;;13.10;99.90;;;;;;5034139;28;20460;-58
2023/10/29 06:48:17;;;;;;;3.67;1.87;;;13.10;99.90;;;;;;5034119;28;20944;-58
2023/10/29 06:50:45;;;;;;;2.87;1.70;;;13.10;99.90;;;;;;5034372;28;20498;-58
2023/10/29 06:53:12;;;;;;;2.93;1.80;;;13.10;99.90;;;;;;5034502;28;20459;-58
2023/10/29 06:55:40;;;;;;;4.00;2.20;;;13.10;99.90;;;;;;5033639;28;20491;-58
2023/10/29 06:58:08;;;;;;;6.50;2.20;;;13.10;99.90;;;;;;5033764;28;20459;-59
2023/10/29 07:00:35;;;;;;;4.50;3.27;;;13.10;99.90;;;;;;5034117;28;20904;-58
2023/10/29 07:03:02;;;;;;;3.63;2.00;;;13.10;99.90;;;;;;5034073;28;20859;-59
2023/10/29 07:05:30;;;;;;;3.80;2.13;;;13.10;99.90;;;;;;5034041;28;20455;-59
2023/10/29 07:07:57;;;;;;;3.10;2.00;;;13.20;99.90;;;;;;5033185;28;20583;-58
2023/10/29 07:10:25;;;;;;;3.50;2.07;;;13.20;99.90;;;;;;5033677;28;20459;-58
2023/10/29 07:12:56;;;;;;;4.67;1.87;;;13.20;99.90;;;;;;5032799;28;20541;-59
2023/10/29 07:15:25;;;;;;;5.07;2.07;;;13.20;99.90;;;;;;5033857;28;20470;-58
2023/10/29 07:17:52;;;;;;;3.30;1.80;;;13.20;99.90;;;;;;5033689;28;20468;-58
2023/10/29 07:20:19;;;;;;;3.20;1.90;;;13.20;99.90;;;;;;5033718;28;20491;-57
2023/10/29 07:22:47;;;;;;;4.83;2.30;;;13.30;99.90;;;;;;5033674;28;20546;-58
2023/10/29 07:25:14;;;;;;;4.13;2.13;;;13.30;99.90;;;;;;5033340;28;20550;-57
2023/10/29 07:27:41;;;;;;;3.87;2.13;;;13.30;99.90;;;;;;5035835;28;20459;-59
2023/10/29 07:30:10;;;;;;;5.30;2.47;;;13.30;99.90;;;;;;5037158;28;20463;-57
2023/10/29 07:32:39;;;;;;;3.47;1.70;;;13.30;99.90;;;;;;5037374;28;20721;-57
2023/10/29 07:35:06;;;;;;;3.60;2.30;;;13.30;99.90;;;;;;5037252;28;20460;-57
2023/10/29 07:37:33;;;;;;;7.33;2.10;;;13.30;99.90;;;;;;5036827;28;20553;-57
2023/10/29 07:40:00;;;;;;;2.80;2.00;;;13.30;99.90;;;;;;5036643;28;20451;-57
2023/10/29 07:42:27;;;;;;;5.60;2.60;;;13.30;99.90;;;;;;5036781;28;20557;-58
2023/10/29 07:44:55;;;;;;;5.20;2.50;;;13.30;99.90;;;;;;5037102;28;20463;-58
2023/10/29 07:47:22;;;;;;;4.03;2.03;;;13.30;99.90;;;;;;5036947;28;20755;-57
2023/10/29 07:49:51;;;;;;;4.20;2.13;;;13.30;99.90;;;;;;5036461;28;20463;-57
2023/10/29 07:52:18;;;;;;;7.20;1.90;;;13.30;99.90;;;;;;5036799;28;20968;-57
2023/10/29 07:54:45;;;;;;;6.37;2.40;;;13.20;99.90;;;;;;5036726;28;20459;-58
2023/10/29 07:57:13;;;;;;;6.23;2.40;;;13.20;99.90;;;;;;5036604;28;20589;-55
2023/10/29 07:59:40;;;;;;;3.87;2.10;;;13.20;99.90;;;;;;5036822;28;20490;-57
2023/10/29 08:02:08;;;;;;;4.40;2.43;;;13.20;99.90;;;;;;5036012;28;20554;-59
2023/10/29 08:04:35;;;;;;;3.53;2.17;;;13.20;99.90;;;;;;5036645;28;20809;-58
2023/10/29 08:07:04;;;;;;;4.03;2.47;;;13.30;99.90;;;;;;5036484;28;20906;-57
2023/10/29 08:09:31;;;;;;;6.43;2.20;;;13.40;99.90;;;;;;5036325;28;20873;-57
2023/10/29 08:11:58;;;;;;;3.53;1.90;;;13.50;99.90;;;;;;5036385;28;20733;-57
2023/10/29 08:14:25;;;;;;;4.50;2.10;;;13.50;99.90;;;;;;5035924;28;20463;-57
2023/10/29 08:16:54;;;;;;;3.47;2.30;;;13.60;99.90;;;;;;5036330;28;20466;-57
2023/10/29 08:19:23;;;;;;;3.50;2.30;;;13.60;99.90;;;;;;5036082;28;20504;-57
2023/10/29 08:21:51;;;;;;;3.90;1.87;;;13.60;99.90;;;;;;5035710;28;20918;-57
2023/10/29 08:24:20;;;;;;;6.60;1.60;;;13.60;99.90;;;;;;5036425;28;20455;-57
2023/10/29 08:26:48;;;;;;;4.30;2.50;;;13.70;99.90;;;;;;5036212;28;20495;-56
2023/10/29 08:29:15;;;;;;;2.90;2.07;;;13.70;99.90;;;;;;5036162;28;20542;-57
2023/10/29 08:31:42;;;;;;;3.93;1.60;;;13.70;99.90;;;;;;5035003;28;20459;-58
2023/10/29 08:34:09;;;;;;;3.87;1.70;;;13.70;99.90;;;;;;5034626;28;20462;-58
2023/10/29 08:36:40;;;;;;;3.43;2.00;;;13.80;99.90;;;;;;5034426;28;20591;-57
2023/10/29 08:39:07;;;;;;;3.30;2.10;;;13.80;99.90;;;;;;5034073;28;20464;-57
2023/10/29 08:41:35;;;;;;;3.87;2.13;;;13.80;1.00;;;;;;5034915;28;20730;-58
2023/10/29 08:44:03;;;;;;;4.17;2.30;;;13.80;99.90;;;;;;5034802;28;20487;-57
2023/10/29 08:46:30;;;;;;;4.67;3.50;;;13.90;1.00;;;;;;5035383;28;20516;-57
2023/10/29 08:48:58;;;;;;;3.40;1.97;;;14.00;1.00;;;;;;5035999;28;20550;-57
2023/10/29 08:51:26;;;;;;;3.93;1.93;;;14.00;99.90;;;;;;5036335;28;20981;-57
2023/10/29 08:53:53;;;;;;;2.80;2.23;;;14.00;99.90;;;;;;5036310;28;20484;-57
2023/10/29 08:56:20;;;;;;;3.17;1.80;;;14.10;99.90;;;;;;5035048;28;20585;-57
2023/10/29 08:58:48;;;;;;;3.13;1.90;;;14.10;1.00;;;;;;5035124;28;20528;-57
2023/10/29 09:01:17;;;;;;;7.63;2.17;;;14.10;1.00;;;;;;5034352;28;20460;-57
2023/10/29 09:03:44;;;;;;;4.07;2.30;;;14.10;99.90;;;;;;5035025;28;20919;-57
2023/10/29 09:06:14;;;;;;;3.10;2.20;;;14.10;99.90;;;;;;5034984;28;20549;-57
2023/10/29 09:08:42;;;;;;;4.23;2.10;;;14.00;99.90;;;;;;5035252;28;20946;-57
2023/10/29 09:11:17;;;;;;;3.40;2.10;;;14.10;50.70;;;;;;5035386;28;20434;-58
2023/10/29 09:13:44;;;;;;;3.50;1.80;;;14.10;1.00;;;;;;5035604;28;20764;-58
2023/10/29 09:16:13;;;;;;;3.47;2.03;;;14.10;1.00;;;;;;5035190;28;20584;-57
2023/10/29 09:18:40;;;;;;;4.13;2.10;;;14.20;1.00;;;;;;5035454;28;20554;-57
2023/10/29 09:21:07;;;;;;;4.77;2.07;;;14.10;1.00;;;;;;5035253;28;20571;-58
2023/10/29 09:23:35;;;;;;;5.27;2.77;;;14.10;1.00;;;;;;5034887;28;20972;-57
2023/10/29 09:26:02;;;;;;;2.80;1.83;;;14.10;1.00;;;;;;5034648;28;20520;-57
2023/10/29 09:28:30;;;;;;;3.23;2.13;;;14.10;1.00;;;;;;5035446;28;20557;-57
2023/10/29 09:31:00;;;;;;;3.77;2.60;;;14.10;1.00;;;;;;5035739;28;20814;-57
2023/10/29 09:33:30;;;;;;;6.03;1.93;;;14.10;1.00;;;;;;5034649;28;20459;-57
2023/10/29 09:36:00;;;;;;;3.30;1.97;;;14.20;1.00;;;;;;5035280;28;20694;-57
2023/10/29 09:38:27;;;;;;;4.67;2.10;;;14.30;1.00;;;;;;5035228;28;20497;-56
2023/10/29 09:40:55;;;;;;;3.50;1.90;;;14.30;1.00;;;;;;5021632;28;20522;-57
2023/10/29 09:43:27;;;;;;;3.20;2.10;;;14.40;1.00;;;;;;5015738;28;20467;-57
2023/10/29 09:45:56;;;;;;;2.83;1.80;;;14.40;1.00;;;;;;5015092;28;20456;-55
2023/10/29 09:48:25;;;;;;;2.50;1.90;;;14.30;1.00;;;;;;5014591;28;20550;-58
2023/10/29 09:50:55;;;;;;;3.97;1.73;;;14.40;1.00;;;;;;5023596;28;20500;-56
2023/10/29 09:53:23;;;;;;;5.70;1.90;;;14.40;1.00;;;;;;5033935;28;20422;-58
2023/10/29 09:55:54;;;;;;;4.00;1.90;;;14.40;1.00;;;;;;5033617;28;20459;-57
2023/10/29 09:58:23;;;;;;;3.43;2.20;;;14.40;1.00;;;;;;5034854;28;20467;-58
2023/10/29 10:00:51;;;;;;;5.70;2.10;;;14.30;1.00;;;;;;5035077;28;20465;-57
2023/10/29 10:03:19;;;;;;;5.17;1.73;;;14.20;1.00;;;;;;5035131;28;20468;-57
2023/10/29 10:05:47;;;;;;;3.70;2.10;;;14.20;1.00;;;;;;5034751;28;20459;-57
2023/10/29 10:08:24;;;;;;;3.33;1.87;;;14.30;1.00;;;;;;5033139;28;20532;-58
2023/10/29 10:10:52;;;;;;;4.00;2.00;;;14.40;1.00;;;;;;5034070;28;20751;-56
2023/10/29 10:13:19;;;;;;;3.37;1.67;;;14.90;1.00;;;;;;5034457;28;20499;-58
2023/10/29 10:15:48;;;;;;;4.00;2.07;;;15.30;1.00;;;;;;5033814;28;20537;-57
2023/10/29 10:18:15;;;;;;;2.77;1.97;;;15.60;99.90;;;;;;5033882;28;20459;-59
2023/10/29 10:20:42;;;;;;;3.37;2.10;;;15.90;99.90;;;;;;5034637;28;20868;-57
2023/10/29 10:23:11;;;;;;;3.70;1.90;;;15.90;99.90;;;;;;5034812;28;20485;-57
2023/10/29 10:25:40;;;;;;;4.43;2.30;;;15.90;99.90;;;;;;5034536;28;20472;-56
2023/10/29 10:28:10;;;;;;;3.43;2.23;;;15.60;99.90;;;;;;5034152;28;20466;-57
2023/10/29 10:30:39;;;;;;;3.27;1.77;;;15.30;99.90;;;;;;5034549;28;20486;-58
2023/10/29 10:33:11;;;;;;;7.30;2.23;;;15.10;99.90;;;;;;5033169;28;20486;-57
2023/10/29 10:35:42;;;;;;;4.50;2.07;;;15.30;99.90;;;;;;5033687;28;20466;-57
2023/10/29 10:38:10;;;;;;;4.30;1.50;;;15.40;99.90;;;;;;5034541;28;20796;-58
2023/10/29 10:40:39;;;;;;;2.97;2.03;;;15.60;99.90;;;;;;5034365;28;20565;-57
2023/10/29 10:43:08;;;;;;;3.53;1.90;;;15.60;99.90;;;;;;5034443;28;20459;-57
2023/10/29 10:45:37;;;;;;;3.07;1.60;;;15.60;99.90;;;;;;5034103;28;20459;-57
2023/10/29 10:48:06;;;;;;;3.80;1.90;;;15.50;99.90;;;;;;5034254;28;20774;-57
2023/10/29 10:50:35;;;;;;;3.83;2.27;;;15.40;99.90;;;;;;5034542;28;20459;-58
2023/10/29 10:53:03;;;;;;;5.00;1.80;;;15.30;99.90;;;;;;5034437;28;20566;-58
2023/10/29 10:55:31;;;;;;;4.23;1.90;;;15.10;99.90;;;;;;5034212;28;20891;-57
2023/10/29 10:58:03;;;;;;;3.07;1.90;;;15.00;99.90;;;;;;5033255;28;20487;-58
2023/10/29 11:00:33;;;;;;;3.47;2.30;;;14.80;99.90;;;;;;5014363;28;20504;-58
2023/10/29 11:03:01;;;;;;;3.30;2.20;;;14.70;99.90;;;;;;5016691;28;20459;-58
2023/10/29 11:05:30;;;;;;;3.03;1.80;;;14.60;99.90;;;;;;5017945;28;20460;-58
2023/10/29 11:07:58;;;;;;;3.27;2.13;;;14.50;99.90;;;;;;5017467;28;20813;-57
2023/10/29 11:10:26;;;;;;;3.10;1.80;;;14.50;99.90;;;;;;5018059;28;20468;-58
2023/10/29 11:12:53;;;;;;;5.87;2.30;;;14.50;99.90;;;;;;5018135;28;20464;-57
2023/10/29 11:15:23;;;;;;;5.33;2.10;;;14.50;99.90;;;;;;5018129;28;20538;-58
2023/10/29 11:17:53;;;;;;;3.13;2.57;;;14.60;99.90;;;;;;5017009;28;20495;-57
2023/10/29 11:20:55;;;;;;;4.30;2.27;;;14.60;99.90;;;;;;5017855;28;20736;-57
2023/10/29 11:23:27;;;;;;;9.20;3.60;;;14.70;99.90;;;;;;5018005;28;20460;-58
2023/10/29 11:26:21;;;;;;;4.00;2.40;;;14.60;99.90;;;;;;5015542;28;20571;-55
2023/10/29 11:28:53;;;;;;;3.63;2.43;;;14.70;99.90;;;;;;5031336;28;20466;-56
2023/10/29 11:31:25;;;;;;;3.73;1.73;;;14.80;99.90;;;;;;5035533;27;20462;-57
2023/10/29 11:34:27;;;;;;;4.83;2.60;;;14.80;99.90;;;;;;5027162;27;20782;-56
2023/10/29 11:36:57;;;;;;;3.53;1.80;;;14.80;99.90;;;;;;5010558;28;20498;-58
2023/10/29 11:39:36;;;;;;;3.23;2.17;;;14.80;99.90;;;;;;5015460;28;20546;-58
2023/10/29 11:42:28;;;;;;;5.83;2.03;;;14.70;99.90;;;;;;5016613;28;20464;-57
2023/10/29 11:45:38;;;;;;;5.60;1.83;;;14.70;99.90;;;;;;5016509;28;20452;-57
2023/10/29 11:48:14;;;;;;;3.00;2.03;;;14.60;99.90;;;;;;5014638;28;20468;-57
2023/10/29 11:50:43;;;;;;;3.27;1.90;;;14.60;99.90;;;;;;5020511;28;20467;-57
2023/10/29 11:53:25;;;;;;;5.13;2.17;;;14.50;99.90;;;;;;5036723;28;20465;-57
2023/10/29 11:55:53;;;;;;;6.40;2.20;;;14.50;99.90;;;;;;5036456;28;20467;-57
2023/10/29 11:58:21;;;;;;;3.40;2.00;;;14.40;99.90;;;;;;5036714;28;20526;-57
2023/10/29 12:00:49;;;;;;;4.43;2.30;;;14.30;99.90;;;;;;5035943;28;20463;-58
2023/10/29 12:03:20;;;;;;;5.57;2.20;;;14.30;99.90;;;;;;5036153;28;20759;-57
2023/10/29 12:05:50;;;;;;;4.93;1.90;;;14.20;99.90;;;;;;5035191;28;20467;-59
2023/10/29 12:08:18;;;;;;;3.03;2.27;;;14.20;1.00;;;;;;5036410;28;20493;-59
2023/10/29 12:10:49;;;;;;;6.50;2.67;;;14.10;10.20;;;;;;5036489;28;20469;-55
2023/10/29 12:13:18;;;;;;;4.07;2.30;;;14.00;99.90;;;;;;5036455;28;20487;-58
2023/10/29 12:15:48;;;;;;;3.97;2.27;;;13.90;1.00;;;;;;5036599;28;20494;-58
2023/10/29 12:18:23;;;;;;;4.73;2.30;;;13.80;1.00;;;;;;5036562;28;20927;-58
2023/10/29 12:20:50;;;;;;;4.17;1.70;;;13.70;99.90;;;;;;5035153;28;20494;-59
2023/10/29 12:23:18;;;;;;;4.13;2.83;;;13.60;1.00;;;;;;5035805;28;20467;-60
2023/10/29 12:25:46;;;;;;;4.70;3.17;;;13.50;1.00;;;;;;5035891;28;20546;-58
2023/10/29 12:28:14;;;;;;;4.10;2.70;;;13.50;99.90;;;;;;5035852;28;20465;-60
2023/10/29 12:30:43;;;;;;;3.77;2.47;;;13.50;99.90;;;;;;5036447;28;20451;-59
2023/10/29 12:33:22;;;;;;;4.10;2.20;;;13.50;1.00;;;;;;5035557;28;20743;-58
2023/10/29 12:35:52;;;;;;;4.83;2.63;;;13.50;8.20;;;;;;5029923;28;20475;-59
2023/10/29 12:38:22;;;;;;;3.77;2.10;;;13.50;1.00;;;;;;5035254;28;20490;-58
2023/10/29 12:41:11;;;;;;;3.40;2.50;;;13.50;1.00;;;;;;5035277;28;20488;-58
2023/10/29 12:43:42;;;;;;;5.23;2.50;;;13.60;99.90;;;;;;5035249;28;20465;-59
2023/10/29 12:46:11;;;;;;;5.00;2.60;;;13.50;1.00;;;;;;5036025;28;20455;-59
2023/10/29 12:48:56;;;;;;;3.77;2.43;;;13.60;56.70;;;;;;5036013;28;20523;-58
2023/10/29 12:51:27;;;;;;;3.93;2.33;;;13.70;1.00;;;;;;5035002;28;20459;-58
2023/10/29 12:54:12;;;;;;;4.40;2.30;;;13.80;1.00;;;;;;5035330;28;20942;-58
2023/10/29 12:56:53;;;;;;;5.20;2.77;;;13.80;1.00;;;;;;5035859;28;20495;-58